Time;durP1;ratioP1;P1;durP2;ratioP2;P2;SDS_P1;SDS_P2;PMS_P1;PMS_P2;Temp;Humidity;BMP_temperature;BMP_pressure;BME280_temperature;BME280_humidity;BME280_pressure;Samples;Min_cycle;Max_cycle;Signal;HPM_P1;HPM_P2
2022/07/19 00:02:10;;;;;;;8.63;2.70;;;;;;;16.07;51.06;99807.79;1716818;83;21086;-84
2022/07/19 00:04:37;;;;;;;5.58;2.10;;;;;;;16.02;52.17;99802.34;1710032;83;21161;-85
2022/07/19 00:07:03;;;;;;;5.83;2.20;;;;;;;15.97;51.04;99796.39;1717954;82;20999;-85
2022/07/19 00:09:30;;;;;;;7.05;2.15;;;;;;;15.93;53.12;99804.81;1714590;82;21026;-84
2022/07/19 00:11:57;;;;;;;5.83;1.87;;;;;;;15.90;52.80;99797.92;1715758;83;21021;-84
2022/07/19 00:14:24;;;;;;;4.90;2.40;;;;;;;15.88;52.80;99801.52;1707860;83;21121;-84
2022/07/19 00:16:51;;;;;;;21.70;2.62;;;;;;;15.84;54.03;99798.14;1707309;84;21110;-84
2022/07/19 00:19:18;;;;;;;7.00;1.98;;;;;;;15.82;54.08;99799.97;1718379;83;21062;-83
2022/07/19 00:21:44;;;;;;;5.33;2.30;;;;;;;15.79;52.83;99796.13;1712946;83;21043;-84
2022/07/19 00:24:11;;;;;;;7.17;2.27;;;;;;;15.76;52.83;99796.72;1705326;83;21044;-84
2022/07/19 00:26:38;;;;;;;8.43;2.30;;;;;;;15.71;51.85;99796.83;1715886;83;21007;-84
2022/07/19 00:29:05;;;;;;;8.20;2.20;;;;;;;15.69;53.29;99792.09;1737788;83;21080;-85
2022/07/19 00:31:31;;;;;;;6.58;2.10;;;;;;;15.65;53.37;99798.34;1761828;82;21022;-86
2022/07/19 00:33:58;;;;;;;5.08;2.25;;;;;;;15.57;53.84;99798.61;1761948;82;21019;-86
2022/07/19 00:36:25;;;;;;;7.65;2.35;;;;;;;15.53;54.81;99797.01;1786893;80;20999;-85
2022/07/19 00:38:52;;;;;;;4.20;2.12;;;;;;;15.53;54.54;99793.08;1737533;82;21020;-83
2022/07/19 00:41:19;;;;;;;6.37;1.80;;;;;;;15.51;56.09;99793.13;1724523;83;21016;-84
2022/07/19 00:43:45;;;;;;;5.28;2.35;;;;;;;15.49;54.59;99798.02;1703599;83;21407;-83
2022/07/19 00:46:20;;;;;;;5.15;2.30;;;;;;;15.48;55.48;99794.55;1705335;83;21038;-82
2022/07/19 00:48:49;;;;;;;4.30;2.20;;;;;;;15.46;54.91;99791.12;1717160;83;21064;-85
2022/07/19 00:51:17;;;;;;;4.45;1.90;;;;;;;15.42;55.93;99789.95;1704505;83;21020;-84
2022/07/19 00:53:45;;;;;;;8.53;1.90;;;;;;;15.38;56.00;99792.28;1721659;82;21030;-85
2022/07/19 00:56:13;;;;;;;4.03;2.10;;;;;;;15.36;55.28;99794.09;1717533;82;21004;-85
2022/07/19 00:58:41;;;;;;;5.17;1.95;;;;;;;15.35;56.30;99793.25;1734162;82;21014;-84
2022/07/19 01:01:10;;;;;;;7.12;2.52;;;;;;;15.34;56.20;99795.48;1720049;82;21041;-85
2022/07/19 01:03:39;;;;;;;6.65;2.10;;;;;;;15.31;55.47;99786.40;1715360;82;21071;-85
2022/07/19 01:06:08;;;;;;;5.90;1.77;;;;;;;15.27;56.22;99790.88;1734415;82;21014;-84
2022/07/19 01:08:37;;;;;;;5.87;2.05;;;;;;;15.24;56.16;99796.23;1686177;84;21333;-85
2022/07/19 01:11:06;;;;;;;6.22;2.08;;;;;;;15.22;56.58;99796.73;1715347;84;21058;-86
2022/07/19 01:13:34;;;;;;;6.08;1.80;;;;;;;15.18;56.92;99793.82;1716973;82;21027;-85
2022/07/19 01:16:01;;;;;;;7.95;2.30;;;;;;;15.11;58.47;99797.08;1715154;84;21031;-84
2022/07/19 01:18:27;;;;;;;23.75;2.70;;;;;;;15.08;56.79;99795.00;1696545;83;21083;-84
2022/07/19 01:20:54;;;;;;;20.37;2.92;;;;;;;15.06;56.64;99794.20;1698739;83;21026;-85
2022/07/19 01:23:21;;;;;;;15.28;3.10;;;;;;;15.03;57.70;99789.08;1693420;83;20968;-84
2022/07/19 01:25:48;;;;;;;8.10;2.15;;;;;;;14.99;58.26;99790.08;1708904;83;21034;-84
2022/07/19 01:28:14;;;;;;;8.38;2.33;;;;;;;14.95;58.34;99791.94;1693557;85;21057;-84
2022/07/19 01:30:41;;;;;;;7.80;2.47;;;;;;;14.90;57.81;99797.33;1699233;83;21035;-84
2022/07/19 01:33:08;;;;;;;4.17;2.12;;;;;;;14.87;59.95;99787.40;1688183;85;21031;-85
2022/07/19 01:35:35;;;;;;;7.97;2.22;;;;;;;14.85;60.05;99788.75;1674487;84;20981;-84
2022/07/19 01:38:02;;;;;;;6.22;2.33;;;;;;;14.81;60.79;99785.83;1677792;85;20990;-84
2022/07/19 01:40:28;;;;;;;7.42;2.35;;;;;;;14.79;61.37;99788.94;1678866;84;21055;-83
2022/07/19 01:42:56;;;;;;;5.22;2.50;;;;;;;14.75;59.63;99789.95;1686359;84;21382;-84
2022/07/19 01:45:22;;;;;;;5.92;2.10;;;;;;;14.71;61.61;99783.95;1660627;85;21083;-84
2022/07/19 01:47:49;;;;;;;7.70;2.45;;;;;;;14.67;61.57;99778.86;1665159;85;21015;-84
2022/07/19 01:50:18;;;;;;;6.35;2.52;;;;;;;14.65;58.09;99787.22;1665155;85;21007;-84
2022/07/19 01:52:45;;;;;;;7.92;2.62;;;;;;;14.59;59.05;99784.33;1688300;85;21627;-84
2022/07/19 01:55:13;;;;;;;7.70;2.72;;;;;;;14.52;59.56;99784.95;1680286;83;21019;-83
2022/07/19 01:57:40;;;;;;;12.68;2.87;;;;;;;14.53;62.65;99785.33;1704438;83;21007;-84
2022/07/19 02:00:08;;;;;;;7.78;3.05;;;;;;;14.54;60.38;99783.56;1670495;85;21009;-84
2022/07/19 02:02:36;;;;;;;6.50;2.77;;;;;;;14.50;58.71;99781.52;1669799;85;21091;-84
2022/07/19 02:05:04;;;;;;;5.08;2.50;;;;;;;14.50;61.65;99778.02;1665212;86;21006;-84
2022/07/19 02:07:30;;;;;;;6.95;2.92;;;;;;;14.49;60.71;99786.33;1670018;85;21057;-84
2022/07/19 02:09:57;;;;;;;9.08;2.98;;;;;;;14.48;61.91;99788.56;1697585;85;21003;-84
2022/07/19 02:12:24;;;;;;;8.65;2.98;;;;;;;14.50;62.28;99784.56;1679091;83;21035;-84
2022/07/19 02:14:51;;;;;;;7.80;3.10;;;;;;;14.52;63.09;99790.17;1686573;85;21098;-84
2022/07/19 02:17:18;;;;;;;7.22;3.10;;;;;;;14.50;61.71;99788.06;1727047;82;21070;-84
2022/07/19 02:19:44;;;;;;;8.63;3.20;;;;;;;14.51;62.79;99790.22;1728202;83;21020;-85
2022/07/19 02:22:10;;;;;;;9.65;3.05;;;;;;;14.51;62.67;99792.83;1729825;82;21012;-84
2022/07/19 02:24:38;;;;;;;6.83;2.95;;;;;;;14.50;62.80;99793.30;1749027;82;20990;-84
2022/07/19 02:27:05;;;;;;;5.33;2.80;;;;;;;14.52;62.43;99796.72;1695649;83;21031;-82
2022/07/19 02:29:31;;;;;;;7.20;2.40;;;;;;;14.47;61.34;99795.98;1704971;84;21043;-82
2022/07/19 02:31:58;;;;;;;11.48;3.17;;;;;;;14.43;61.55;99790.44;1706071;83;21039;-84
2022/07/19 02:34:24;;;;;;;4.80;2.40;;;;;;;14.44;62.07;99792.17;1710385;83;21015;-82
2022/07/19 02:36:51;;;;;;;6.60;2.70;;;;;;;14.40;59.70;99793.13;1709121;83;21076;-83
2022/07/19 02:39:18;;;;;;;11.20;2.62;;;;;;;14.29;61.65;99796.54;1711450;83;20937;-83
2022/07/19 02:41:45;;;;;;;6.45;2.60;;;;;;;14.24;63.32;99797.11;1704743;83;20996;-83
2022/07/19 02:44:11;;;;;;;7.10;2.22;;;;;;;14.19;62.60;99792.02;1723410;83;21013;-84
2022/07/19 02:46:38;;;;;;;8.08;2.52;;;;;;;14.12;60.94;99793.97;1708077;83;21032;-85
2022/07/19 02:49:05;;;;;;;5.72;2.42;;;;;;;14.07;64.13;99790.61;1708335;84;21305;-84
2022/07/19 02:51:31;;;;;;;7.42;2.50;;;;;;;14.03;64.23;99794.21;1708222;84;21033;-85
2022/07/19 02:53:58;;;;;;;5.33;2.42;;;;;;;14.00;65.19;99791.67;1711401;83;21014;-85
2022/07/19 02:56:24;;;;;;;5.05;2.50;;;;;;;13.97;61.26;99793.08;1708300;83;21060;-85
2022/07/19 02:58:51;;;;;;;9.05;2.77;;;;;;;13.92;62.96;99790.57;1708339;83;21019;-85
2022/07/19 03:01:18;;;;;;;8.25;2.25;;;;;;;13.88;64.32;99792.02;1708181;83;21064;-85
2022/07/19 03:03:46;;;;;;;14.75;2.62;;;;;;;13.81;62.73;99794.41;1709581;83;21048;-85
2022/07/19 03:06:15;;;;;;;7.85;2.60;;;;;;;13.74;62.94;99802.84;1732152;83;21078;-85
2022/07/19 03:08:43;;;;;;;6.03;2.45;;;;;;;13.69;63.34;99808.20;1725350;82;20967;-84
2022/07/19 03:11:09;;;;;;;12.88;3.45;;;;;;;13.68;64.15;99801.70;1710933;83;21074;-85
2022/07/19 03:13:36;;;;;;;12.85;2.12;;;;;;;13.68;63.75;99803.86;1708183;84;21099;-85
2022/07/19 03:16:04;;;;;;;10.28;2.35;;;;;;;13.66;62.76;99804.34;1708763;83;21039;-85
2022/07/19 03:18:31;;;;;;;11.70;2.33;;;;;;;13.65;62.43;99805.27;1697780;83;21074;-84
2022/07/19 03:21:00;;;;;;;4.37;1.92;;;;;;;13.61;60.68;99806.24;1694665;82;21095;-86
2022/07/19 03:23:33;;;;;;;7.47;2.20;;;;;;;13.56;62.55;99808.11;1719292;81;21024;-86
2022/07/19 03:26:00;;;;;;;14.28;2.27;;;;;;;13.55;63.27;99811.63;1712301;81;20976;-85
2022/07/19 03:28:27;;;;;;;5.20;2.20;;;;;;;13.56;63.46;99811.17;1693287;85;20971;-85
2022/07/19 03:30:54;;;;;;;7.28;2.27;;;;;;;13.49;63.89;99794.81;1688517;84;21598;-84
2022/07/19 03:33:21;;;;;;;33.00;3.62;;;;;;;13.67;64.12;99811.77;1684041;83;21052;-83
2022/07/19 03:35:47;;;;;;;34.92;3.25;;;;;;;13.74;64.31;99811.98;1680208;84;21007;-84
2022/07/19 03:38:18;;;;;;;22.05;3.20;;;;;;;13.81;64.41;99809.63;1664337;86;21081;-84
2022/07/19 03:40:50;;;;;;;19.75;3.00;;;;;;;13.85;64.29;99810.41;1664640;86;20996;-85
2022/07/19 03:43:16;;;;;;;14.90;2.83;;;;;;;13.92;63.99;99813.25;1658536;86;21107;-84
2022/07/19 03:45:45;;;;;;;19.67;2.75;;;;;;;13.97;63.65;99816.61;1669867;85;20964;-85
2022/07/19 03:48:12;;;;;;;14.70;3.37;;;;;;;14.03;63.63;99821.66;1687636;85;21071;-85
2022/07/19 03:50:39;;;;;;;7.25;3.33;;;;;;;14.04;62.19;99819.44;1687390;85;21007;-85
2022/07/19 03:53:07;;;;;;;6.90;2.40;;;;;;;14.06;63.13;99816.33;1711044;84;21024;-85
2022/07/19 03:55:34;;;;;;;10.13;2.77;;;;;;;14.10;63.43;99823.19;1706937;84;21012;-85
2022/07/19 03:58:01;;;;;;;6.70;2.60;;;;;;;14.10;62.87;99818.42;1697393;84;21039;-86
2022/07/19 04:00:28;;;;;;;7.00;2.62;;;;;;;14.11;63.29;99819.69;1663197;86;21860;-86
2022/07/19 04:02:54;;;;;;;4.62;2.30;;;;;;;14.07;62.68;99815.91;1685929;84;21251;-85
2022/07/19 04:05:21;;;;;;;7.58;2.80;;;;;;;14.03;62.08;99824.28;1694514;85;21012;-84
2022/07/19 04:07:48;;;;;;;10.75;2.85;;;;;;;13.99;62.98;99820.49;1704668;83;21031;-85
2022/07/19 04:10:15;;;;;;;8.63;3.05;;;;;;;13.98;62.97;99824.84;1710742;83;21047;-85
2022/07/19 04:12:41;;;;;;;5.25;2.40;;;;;;;13.99;63.34;99822.66;1702961;83;20990;-85
2022/07/19 04:15:09;;;;;;;6.70;2.60;;;;;;;14.02;61.50;99828.23;1694178;84;21077;-86
2022/07/19 04:17:36;;;;;;;6.45;2.80;;;;;;;13.96;62.57;99830.56;1693410;83;21082;-84
2022/07/19 04:20:05;;;;;;;7.15;3.12;;;;;;;13.96;62.04;99831.02;1700776;83;21538;-84
2022/07/19 04:22:32;;;;;;;14.20;4.00;;;;;;;13.99;62.88;99827.88;1703756;83;20999;-86
2022/07/19 04:24:58;;;;;;;9.08;3.67;;;;;;;14.04;62.75;99828.59;1683175;84;21066;-86
2022/07/19 04:27:25;;;;;;;8.65;3.77;;;;;;;14.10;62.81;99827.57;1665370;86;21075;-86
2022/07/19 04:29:51;;;;;;;13.48;3.67;;;;;;;14.17;62.73;99823.90;1673475;85;21083;-85
2022/07/19 04:32:18;;;;;;;6.05;3.30;;;;;;;14.19;62.50;99822.09;1670881;86;21043;-86
2022/07/19 04:34:45;;;;;;;15.90;5.70;;;;;;;14.22;62.86;99824.60;1689077;85;21405;-85
2022/07/19 04:37:11;;;;;;;14.25;3.75;;;;;;;14.27;63.29;99824.49;1671591;83;21015;-86
2022/07/19 04:39:39;;;;;;;11.73;3.25;;;;;;;14.31;62.88;99828.27;1687702;85;21032;-85
2022/07/19 04:42:05;;;;;;;13.05;4.92;;;;;;;14.37;62.87;99831.17;1687702;85;21111;-86
2022/07/19 04:44:32;;;;;;;11.63;3.30;;;;;;;14.45;62.82;99833.11;1687675;85;20979;-86
2022/07/19 04:46:59;;;;;;;8.00;2.98;;;;;;;14.56;61.21;99829.31;1665240;86;21063;-86
2022/07/19 04:49:25;;;;;;;16.07;3.17;;;;;;;14.58;62.44;99829.70;1692973;85;21070;-86
2022/07/19 04:51:52;;;;;;;10.53;3.33;;;;;;;14.62;62.03;99828.73;1676532;85;21031;-86
2022/07/19 04:54:19;;;;;;;7.10;3.00;;;;;;;14.71;62.03;99833.67;1688169;85;21104;-86
2022/07/19 04:56:46;;;;;;;10.75;2.70;;;;;;;14.78;62.20;99835.67;1700865;83;21066;-85
2022/07/19 04:59:12;;;;;;;10.70;3.20;;;;;;;14.88;61.10;99837.53;1694443;85;21107;-85
2022/07/19 05:01:39;;;;;;;6.50;3.08;;;;;;;14.98;61.07;99838.10;1694539;85;21046;-86
2022/07/19 05:04:06;;;;;;;6.47;2.42;;;;;;;15.05;60.78;99841.80;1694638;85;21054;-86
2022/07/19 05:06:33;;;;;;;6.87;2.90;;;;;;;15.15;60.16;99846.29;1716615;83;21019;-86
2022/07/19 05:08:59;;;;;;;13.43;3.80;;;;;;;15.23;60.25;99838.19;1697047;83;21075;-86
2022/07/19 05:11:26;;;;;;;7.95;2.80;;;;;;;15.31;60.24;99837.02;1694627;85;21013;-86
2022/07/19 05:13:53;;;;;;;7.05;2.92;;;;;;;15.40;59.95;99833.69;1694665;85;21006;-87
2022/07/19 05:16:19;;;;;;;6.33;2.80;;;;;;;15.43;60.27;99846.70;1696974;84;21475;-86
2022/07/19 05:18:46;;;;;;;6.83;2.52;;;;;;;15.50;59.89;99841.67;1735205;81;21032;-86
2022/07/19 05:21:12;;;;;;;10.85;2.60;;;;;;;15.58;59.86;99844.02;1738041;83;21053;-86
2022/07/19 05:23:41;;;;;;;4.65;2.20;;;;;;;15.65;59.35;99842.91;1708808;83;21046;-86
2022/07/19 05:26:08;;;;;;;5.45;2.30;;;;;;;15.70;59.16;99840.54;1741313;82;20985;-87
2022/07/19 05:28:35;;;;;;;7.10;2.40;;;;;;;15.77;59.00;99835.11;1731495;83;21025;-85
2022/07/19 05:31:04;;;;;;;6.20;2.70;;;;;;;15.83;59.04;99836.21;1708443;83;21094;-86
2022/07/19 05:33:31;;;;;;;5.80;2.10;;;;;;;15.95;58.36;99842.80;1741509;82;21038;-86
2022/07/19 05:35:58;;;;;;;5.78;2.30;;;;;;;16.07;58.17;99844.52;1738063;82;21035;-86
2022/07/19 05:38:25;;;;;;;7.03;2.27;;;;;;;16.21;57.79;99845.33;1718822;82;20990;-86
2022/07/19 05:40:52;;;;;;;7.35;2.90;;;;;;;16.31;57.18;99836.66;1716123;84;21023;-87
2022/07/19 05:43:18;;;;;;;7.15;2.35;;;;;;;16.43;56.67;99840.17;1713558;84;20987;-86
2022/07/19 05:45:45;;;;;;;10.18;2.40;;;;;;;16.53;56.63;99844.59;1699098;84;21021;-86
2022/07/19 05:48:11;;;;;;;3.80;2.12;;;;;;;16.65;56.41;99841.53;1708562;84;21042;-86
2022/07/19 05:50:38;;;;;;;9.85;2.42;;;;;;;16.78;55.50;99840.59;1708360;84;20975;-86
2022/07/19 05:53:05;;;;;;;9.75;2.30;;;;;;;16.87;55.28;99842.02;1687877;85;21082;-87
2022/07/19 05:55:32;;;;;;;4.62;1.80;;;;;;;16.96;55.04;99842.14;1694790;84;21007;-86
2022/07/19 05:57:58;;;;;;;4.37;2.20;;;;;;;17.06;55.07;99847.42;1720793;82;21031;-86
2022/07/19 06:00:25;;;;;;;7.62;2.15;;;;;;;17.20;54.71;99841.61;1708515;84;21026;-86
2022/07/19 06:02:52;;;;;;;6.95;2.22;;;;;;;17.34;54.51;99842.37;1711115;83;21574;-85
2022/07/19 06:05:19;;;;;;;4.28;1.72;;;;;;;17.44;54.09;99843.22;1723362;83;21068;-86
2022/07/19 06:07:45;;;;;;;4.97;2.00;;;;;;;17.55;53.80;99837.97;1708509;83;21078;-86
2022/07/19 06:10:12;;;;;;;9.43;2.27;;;;;;;17.65;53.48;99841.48;1708970;83;21010;-86
2022/07/19 06:12:39;;;;;;;5.62;2.55;;;;;;;17.74;53.28;99842.01;1700389;83;21027;-85
2022/07/19 06:15:06;;;;;;;8.73;2.50;;;;;;;17.82;53.31;99842.06;1715329;83;21048;-85
2022/07/19 06:17:33;;;;;;;7.62;2.83;;;;;;;17.94;52.89;99849.07;1717794;83;21547;-85
2022/07/19 06:20:00;;;;;;;7.10;2.47;;;;;;;18.02;52.62;99839.06;1702441;83;21094;-80
2022/07/19 06:22:31;;;;;;;9.73;3.02;;;;;;;18.13;52.13;99840.77;1712742;83;21154;-80
2022/07/19 06:24:59;;;;;;;9.50;2.30;;;;;;;18.20;52.24;99840.03;1711837;83;21534;-79
2022/07/19 06:27:25;;;;;;;7.12;2.85;;;;;;;18.32;51.93;99840.78;1709330;82;21036;-80
2022/07/19 06:29:52;;;;;;;7.20;2.33;;;;;;;18.43;51.63;99846.43;1719205;83;21525;-82
2022/07/19 06:32:19;;;;;;;7.58;2.17;;;;;;;18.56;51.62;99841.91;1717034;83;21041;-80
2022/07/19 06:34:45;;;;;;;8.55;2.12;;;;;;;18.76;51.20;99840.98;1704776;83;21094;-83
2022/07/19 06:37:12;;;;;;;10.40;2.40;;;;;;;18.89;50.23;99842.16;1711771;83;21569;-83
2022/07/19 06:39:39;;;;;;;8.28;2.22;;;;;;;19.03;50.27;99838.39;1721610;83;21468;-81
2022/07/19 06:42:06;;;;;;;17.30;2.33;;;;;;;19.24;50.21;99837.82;1727234;83;21017;-81
2022/07/19 06:44:34;;;;;;;7.67;2.10;;;;;;;19.44;49.06;99841.27;1697023;83;21002;-81
2022/07/19 06:47:01;;;;;;;5.55;2.22;;;;;;;19.53;48.95;99835.51;1704371;83;21111;-81
2022/07/19 06:49:28;;;;;;;4.05;1.80;;;;;;;19.65;48.84;99833.56;1719794;82;21055;-81
2022/07/19 06:51:55;;;;;;;3.67;1.67;;;;;;;19.74;46.50;99836.25;1711128;83;21023;-81
2022/07/19 06:54:21;;;;;;;9.13;2.50;;;;;;;19.91;47.34;99844.59;1716466;83;20989;-80
2022/07/19 06:56:48;;;;;;;7.05;2.30;;;;;;;19.93;47.09;99832.66;1716359;83;21034;-80
2022/07/19 06:59:15;;;;;;;3.60;1.47;;;;;;;20.01;47.12;99833.95;1691333;84;21024;-80
2022/07/19 07:01:41;;;;;;;3.35;1.65;;;;;;;20.09;44.85;99835.34;1713180;83;20985;-80
2022/07/19 07:04:08;;;;;;;8.20;1.90;;;;;;;20.15;45.10;99836.34;1712107;83;21070;-82
2022/07/19 07:06:34;;;;;;;5.67;2.42;;;;;;;20.23;45.01;99833.70;1719022;83;21016;-82
2022/07/19 07:09:02;;;;;;;4.05;2.10;;;;;;;20.33;45.55;99832.70;1720986;82;21044;-82
2022/07/19 07:11:29;;;;;;;5.60;2.35;;;;;;;20.42;45.11;99836.66;1725436;82;21094;-82
2022/07/19 07:13:56;;;;;;;6.03;1.70;;;;;;;20.57;43.83;99826.59;1725200;82;20987;-81
2022/07/19 07:16:22;;;;;;;8.68;2.12;;;;;;;20.74;44.45;99824.36;1695385;82;21020;-80
2022/07/19 07:18:49;;;;;;;6.95;2.12;;;;;;;20.84;44.34;99826.86;1723851;82;21100;-81
2022/07/19 07:21:16;;;;;;;3.42;1.80;;;;;;;20.93;44.13;99826.84;1696651;82;21046;-82
2022/07/19 07:23:43;;;;;;;7.92;1.85;;;;;;;21.00;43.74;99826.85;1721393;82;21554;-81
2022/07/19 07:26:10;;;;;;;9.25;2.27;;;;;;;21.09;43.53;99821.98;1711662;82;21597;-81
2022/07/19 07:28:36;;;;;;;5.60;1.80;;;;;;;21.18;43.67;99820.98;1696545;82;21042;-81
2022/07/19 07:31:03;;;;;;;4.17;1.32;;;;;;;21.37;43.29;99819.47;1718885;82;21021;-80
2022/07/19 07:33:30;;;;;;;4.80;1.70;;;;;;;21.58;42.91;99820.02;1717857;82;21152;-79
2022/07/19 07:35:57;;;;;;;5.97;2.27;;;;;;;21.65;42.46;99813.42;1724374;82;21027;-81
2022/07/19 07:38:23;;;;;;;4.65;1.55;;;;;;;21.76;41.60;99815.90;1720747;82;21011;-81
2022/07/19 07:40:50;;;;;;;4.87;1.60;;;;;;;21.83;41.27;99811.95;1724296;82;21570;-80
2022/07/19 07:43:16;;;;;;;6.75;1.72;;;;;;;21.91;41.32;99811.02;1714296;82;20975;-81
2022/07/19 07:45:43;;;;;;;4.35;1.82;;;;;;;22.01;41.31;99808.17;1709267;82;21022;-81
2022/07/19 07:48:09;;;;;;;3.52;1.30;;;;;;;22.18;41.25;99811.13;1720066;82;20993;-81
2022/07/19 07:50:36;;;;;;;5.65;1.70;;;;;;;22.27;40.23;99809.73;1715048;82;21033;-81
2022/07/19 07:53:03;;;;;;;3.98;1.77;;;;;;;22.35;40.43;99808.77;1712389;82;22368;-81
2022/07/19 07:55:30;;;;;;;11.78;6.17;;;;;;;22.44;38.37;99812.17;1704734;82;21074;-82
2022/07/19 07:57:57;;;;;;;3.83;1.60;;;;;;;22.54;39.52;99805.83;1715119;82;20970;-81
2022/07/19 08:00:23;;;;;;;4.42;1.65;;;;;;;22.67;39.25;99802.39;1724557;82;21517;-81
2022/07/19 08:02:50;;;;;;;7.05;1.57;;;;;;;22.78;38.00;99806.50;1708478;82;21014;-81
2022/07/19 08:05:22;;;;;;;6.80;1.80;;;;;;;22.91;38.55;99813.21;1726258;82;21518;-81
2022/07/19 08:07:50;;;;;;;11.08;1.80;;;;;;;23.01;38.62;99812.98;1734159;82;21012;-82
2022/07/19 08:10:17;;;;;;;4.35;1.67;;;;;;;23.14;38.00;99813.92;1735506;82;21014;-81
2022/07/19 08:12:43;;;;;;;8.70;2.00;;;;;;;23.24;37.61;99803.55;1715130;82;21162;-81
2022/07/19 08:15:10;;;;;;;8.58;2.22;;;;;;;23.32;38.14;99808.35;1719029;82;21030;-81
2022/07/19 08:17:37;;;;;;;5.12;2.33;;;;;;;23.39;38.14;99801.66;1725115;82;21490;-81
2022/07/19 08:20:05;;;;;;;6.72;1.90;;;;;;;23.51;37.88;99807.47;1697370;82;21000;-80
2022/07/19 08:22:32;;;;;;;5.50;1.80;;;;;;;23.61;38.32;99797.92;1691324;83;21096;-80
2022/07/19 08:24:59;;;;;;;4.90;1.92;;;;;;;23.73;38.22;99798.89;1690903;83;21015;-80
2022/07/19 08:27:25;;;;;;;5.58;1.98;;;;;;;23.85;37.33;99799.88;1698040;83;21062;-80
2022/07/19 08:29:52;;;;;;;5.20;1.70;;;;;;;23.92;37.55;99799.84;1689845;85;21534;-80
2022/07/19 08:32:19;;;;;;;8.58;1.75;;;;;;;24.04;37.68;99796.81;1694921;83;20989;-81
2022/07/19 08:34:45;;;;;;;9.85;1.90;;;;;;;24.19;37.68;99790.89;1688304;85;21130;-82
2022/07/19 08:37:12;;;;;;;8.08;1.70;;;;;;;24.27;37.55;99789.02;1698767;83;21034;-81
2022/07/19 08:39:38;;;;;;;5.45;1.77;;;;;;;24.29;37.38;99783.12;1679572;85;21031;-81
2022/07/19 08:42:05;;;;;;;7.40;2.00;;;;;;;24.35;36.69;99783.55;1674654;85;20984;-81
2022/07/19 08:44:38;;;;;;;6.40;2.00;;;;;;;24.51;37.06;99784.66;1663573;83;20995;-86
2022/07/19 08:47:04;;;;;;;5.40;1.90;;;;;;;24.63;36.01;99776.73;1695395;84;21016;-83
2022/07/19 08:49:32;;;;;;;3.55;1.80;;;;;;;24.75;36.62;99775.83;1676385;84;21610;-82
2022/07/19 08:52:00;;;;;;;4.55;1.70;;;;;;;24.85;35.57;99776.02;1661597;85;21079;-81
2022/07/19 08:54:27;;;;;;;3.37;1.62;;;;;;;24.95;35.80;99771.25;1691857;83;21006;-81
2022/07/19 08:59:40;;;;;;;6.65;1.40;;;;;;;25.24;35.38;99768.23;1681153;83;20972;-81
2022/07/19 09:02:07;;;;;;;3.08;1.47;;;;;;;25.35;33.97;99768.77;1683320;83;21011;-80
2022/07/19 09:04:33;;;;;;;2.47;1.30;;;;;;;25.42;34.17;99757.16;1703942;83;21023;-82
2022/07/19 09:07:00;;;;;;;3.25;1.50;;;;;;;25.55;34.49;99758.77;1690744;84;21047;-81
2022/07/19 09:09:34;;;;;;;3.67;1.42;;;;;;;25.62;34.24;99759.63;1683359;83;21602;-81
2022/07/19 09:12:03;;;;;;;5.30;1.30;;;;;;;25.72;33.73;99756.61;1672712;84;21050;-82
2022/07/19 09:14:36;;;;;;;3.17;1.60;;;;;;;25.82;34.09;99756.25;1698252;83;21018;-80
2022/07/19 09:17:09;;;;;;;5.60;1.55;;;;;;;25.90;33.39;99747.66;1689007;85;21098;-83
2022/07/19 09:19:39;;;;;;;8.65;1.50;;;;;;;25.92;32.48;99750.59;1707330;82;21643;-83
2022/07/19 09:22:15;;;;;;;3.10;1.72;;;;;;;25.95;32.15;99743.70;1725436;82;21008;-81
2022/07/19 09:24:49;;;;;;;4.17;1.60;;;;;;;26.02;31.53;99748.05;1744157;82;21011;-81
2022/07/19 09:27:19;;;;;;;2.47;1.20;;;;;;;26.05;30.94;99748.31;1742089;82;21052;-81
2022/07/19 09:29:50;;;;;;;2.35;1.25;;;;;;;26.05;31.14;99742.50;1699840;82;21444;-82
2022/07/19 09:32:20;;;;;;;3.75;1.40;;;;;;;26.09;31.76;99737.28;1694937;82;21099;-84
2022/07/19 09:34:56;;;;;;;6.30;1.75;;;;;;;26.15;31.46;99729.30;1720227;82;21097;-82
2022/07/19 09:37:27;;;;;;;4.45;1.92;;;;;;;26.21;31.59;99728.80;1736870;82;21004;-81
2022/07/19 09:40:04;;;;;;;2.00;1.12;;;;;;;26.32;30.83;99736.78;1708867;83;21014;-83
2022/07/19 09:42:44;;;;;;;6.10;1.67;;;;;;;26.39;29.79;99739.80;1704597;83;21008;-82
2022/07/19 09:45:14;;;;;;;2.95;1.62;;;;;;;26.44;31.25;99737.62;1705322;83;21039;-81
2022/07/19 09:47:45;;;;;;;4.12;1.57;;;;;;;26.52;31.54;99734.30;1717297;83;20994;-82
2022/07/19 09:50:16;;;;;;;2.35;1.47;;;;;;;26.58;31.33;99736.03;1701963;83;20998;-83
2022/07/19 09:52:45;;;;;;;3.42;1.50;;;;;;;26.64;30.84;99728.02;1707735;83;21534;-83
2022/07/19 09:55:12;;;;;;;2.95;1.45;;;;;;;26.59;29.44;99726.20;1711570;83;21478;-83
2022/07/19 09:57:44;;;;;;;4.17;1.50;;;;;;;26.63;29.24;99724.98;1717829;82;21074;-81
2022/07/19 10:00:13;;;;;;;3.05;1.45;;;;;;;26.66;28.66;99726.08;1702758;83;21026;-85
2022/07/19 10:02:45;;;;;;;6.50;1.70;;;;;;;26.66;28.98;99722.08;1716011;83;21054;-83
2022/07/19 10:05:13;;;;;;;4.35;1.60;;;;;;;26.72;29.72;99724.70;1706005;83;21030;-83
2022/07/19 10:07:42;;;;;;;3.90;1.50;;;;;;;26.84;30.06;99709.50;1713046;83;21741;-82
2022/07/19 10:10:13;;;;;;;8.08;1.20;;;;;;;26.94;27.89;99708.62;1705614;83;21608;-81
2022/07/19 10:12:43;;;;;;;2.27;1.37;;;;;;;27.03;28.92;99705.66;1733447;82;21021;-83
2022/07/19 10:15:12;;;;;;;4.35;1.27;;;;;;;27.09;28.84;99714.48;1687192;84;21027;-82
2022/07/19 10:18:05;;;;;;;5.05;1.47;;;;;;;27.19;29.21;99707.38;1716280;83;20998;-82
2022/07/19 10:20:33;;;;;;;2.70;1.50;;;;;;;27.27;29.45;99708.09;1710402;83;21018;-83
2022/07/19 10:23:02;;;;;;;5.90;1.20;;;;;;;27.32;28.66;99694.38;1703538;83;21021;-84
2022/07/19 10:25:46;;;;;;;5.12;1.50;;;;;;;27.40;29.58;99693.23;1693882;84;21106;-82
2022/07/19 10:28:30;;;;;;;3.00;1.40;;;;;;;27.51;29.46;99694.47;1703442;83;21030;-82
2022/07/19 10:30:56;;;;;;;5.37;1.40;;;;;;;27.60;29.53;99692.84;1697095;83;21570;-83
2022/07/19 10:33:31;;;;;;;5.85;1.40;;;;;;;27.71;28.19;99689.23;1702437;83;21015;-82
2022/07/19 10:35:58;;;;;;;3.70;1.50;;;;;;;27.71;27.87;99690.56;1685713;83;21066;-82
2022/07/19 10:38:24;;;;;;;2.33;1.40;;;;;;;27.82;28.08;99691.81;1673263;84;21062;-82
2022/07/19 10:40:56;;;;;;;3.72;1.42;;;;;;;27.75;27.83;99687.51;1692340;83;21003;-81
2022/07/19 10:43:27;;;;;;;4.45;1.25;;;;;;;27.79;28.09;99690.73;1700292;83;21149;-82
2022/07/19 10:46:02;;;;;;;3.58;1.32;;;;;;;27.86;27.93;99683.88;1712405;83;21536;-82
2022/07/19 10:48:50;;;;;;;4.92;1.70;;;;;;;27.95;27.32;99683.58;1708860;83;21519;-84
2022/07/19 10:51:35;;;;;;;4.75;1.50;;;;;;;27.92;27.60;99675.36;1680212;83;21012;-83
2022/07/19 10:54:07;;;;;;;5.70;1.47;;;;;;;27.99;26.83;99676.14;1686165;83;21003;-84
2022/07/19 10:56:41;;;;;;;3.05;1.45;;;;;;;28.05;27.06;99670.25;1686824;84;21468;-80
2022/07/19 10:59:11;;;;;;;3.75;1.50;;;;;;;28.03;26.33;99669.55;1663205;84;21529;-83
2022/07/19 11:02:00;;;;;;;4.35;1.50;;;;;;;28.05;27.00;99672.42;1701245;83;21020;-84
2022/07/19 11:04:35;;;;;;;4.30;1.52;;;;;;;28.13;27.14;99670.41;1705557;83;21062;-85
2022/07/19 11:07:22;;;;;;;3.65;1.50;;;;;;;28.19;27.17;99669.02;1695748;83;21019;-81
2022/07/19 11:09:57;;;;;;;5.75;1.25;;;;;;;28.24;24.70;99667.63;1695551;83;21566;-82
2022/07/19 11:12:37;;;;;;;3.58;1.47;;;;;;;28.31;26.91;99662.09;1704596;83;21047;-84
2022/07/19 11:15:08;;;;;;;6.92;1.20;;;;;;;28.46;26.49;99658.51;1711570;83;21492;-83
2022/07/19 11:17:36;;;;;;;4.37;1.47;;;;;;;28.55;26.76;99652.83;1685079;84;21551;-83
2022/07/19 11:20:10;;;;;;;4.37;1.15;;;;;;;28.65;26.55;99644.81;1699712;82;21018;-83
2022/07/19 11:22:44;;;;;;;4.35;1.30;;;;;;;28.71;26.58;99649.13;1718989;83;21142;-82
2022/07/19 11:25:14;;;;;;;6.35;1.40;;;;;;;28.81;26.97;99645.58;1707886;83;21026;-81
2022/07/19 11:27:43;;;;;;;6.97;1.80;;;;;;;28.79;25.95;99636.84;1702379;83;21008;-81
2022/07/19 11:30:12;;;;;;;3.87;1.60;;;;;;;28.86;26.02;99637.48;1733160;82;20994;-82
2022/07/19 11:32:44;;;;;;;4.55;1.30;;;;;;;28.96;26.86;99630.78;1721144;83;21562;-81
2022/07/19 11:35:14;;;;;;;5.30;1.40;;;;;;;29.17;26.55;99632.45;1713996;83;21046;-82
2022/07/19 11:37:43;;;;;;;4.72;1.30;;;;;;;29.30;26.32;99630.30;1706357;83;21587;-81
2022/07/19 11:40:17;;;;;;;4.53;1.30;;;;;;;29.40;26.24;99626.26;1723447;82;21004;-81